Time;durP1;ratioP1;P1;durP2;ratioP2;P2;SDS_P1;SDS_P2;PMS_P1;PMS_P2;Temp;Humidity;BMP_temperature;BMP_pressure;BME280_temperature;BME280_humidity;BME280_pressure;Samples;Min_cycle;Max_cycle;Signal;HPM_P1;HPM_P2
2020/12/19 00:01:48;;;;;;;8.10;7.30;;;8.80;99.90;;;;;;6155610;23;20177;-80
2020/12/19 00:04:17;;;;;;;10.00;8.65;;;8.80;99.90;;;;;;6181810;23;20191;-80
2020/12/19 00:06:44;;;;;;;9.70;7.20;;;8.80;99.90;;;;;;6131482;23;20543;-80
2020/12/19 00:09:10;;;;;;;9.35;7.38;;;8.90;99.90;;;;;;6181492;23;20568;-80
2020/12/19 00:11:36;;;;;;;9.32;7.93;;;8.90;99.90;;;;;;6181378;23;20162;-80
2020/12/19 00:14:02;;;;;;;11.97;9.47;;;8.90;99.90;;;;;;6155642;23;20181;-80
2020/12/19 00:16:29;;;;;;;7.10;6.43;;;8.90;99.90;;;;;;6182182;23;20177;-80
2020/12/19 00:18:56;;;;;;;10.68;8.98;;;8.90;99.90;;;;;;6181128;23;20553;-80
2020/12/19 00:21:21;;;;;;;10.45;8.73;;;8.90;99.90;;;;;;6181823;23;20178;-79
2020/12/19 00:23:47;;;;;;;8.67;7.77;;;8.90;99.90;;;;;;6182153;23;20452;-79
2020/12/19 00:26:13;;;;;;;13.63;9.60;;;8.90;99.90;;;;;;6181652;23;20588;-79
2020/12/19 00:28:40;;;;;;;11.40;8.77;;;8.90;99.90;;;;;;6154707;23;20660;-80
2020/12/19 00:31:06;;;;;;;11.07;8.90;;;8.90;99.90;;;;;;6181900;23;20245;-80
2020/12/19 00:33:32;;;;;;;11.15;9.43;;;9.00;99.90;;;;;;6181978;23;20146;-80
2020/12/19 00:35:58;;;;;;;11.05;9.27;;;9.00;99.90;;;;;;6181972;23;20146;-79
2020/12/19 00:38:24;;;;;;;10.33;8.73;;;9.00;99.90;;;;;;6181750;23;20167;-79
2020/12/19 00:40:50;;;;;;;10.23;9.13;;;8.90;99.90;;;;;;6155815;23;20173;-80
2020/12/19 00:43:15;;;;;;;11.00;9.20;;;9.00;99.90;;;;;;6182514;23;20195;-79
2020/12/19 00:45:41;;;;;;;11.10;9.70;;;9.00;99.90;;;;;;6182696;23;20154;-80
2020/12/19 00:48:07;;;;;;;11.00;8.90;;;9.10;99.90;;;;;;6155205;23;20172;-80
2020/12/19 00:50:33;;;;;;;10.60;8.50;;;9.10;99.90;;;;;;6155288;23;20150;-79
2020/12/19 00:52:58;;;;;;;9.07;7.93;;;9.10;99.90;;;;;;6181858;23;20283;-79
2020/12/19 00:55:24;;;;;;;9.97;7.93;;;9.20;99.90;;;;;;6181696;23;20152;-79
2020/12/19 00:57:50;;;;;;;9.23;8.10;;;9.20;99.90;;;;;;6181365;23;20153;-80
2020/12/19 01:00:16;;;;;;;9.23;7.90;;;9.30;99.90;;;;;;6155014;23;20180;-80
2020/12/19 01:02:41;;;;;;;8.90;7.40;;;9.30;99.90;;;;;;6155117;23;20157;-80
2020/12/19 01:05:08;;;;;;;8.07;6.60;;;9.40;99.90;;;;;;6181773;23;20158;-80
2020/12/19 01:07:40;;;;;;;7.75;6.97;;;9.40;99.90;;;;;;6181224;23;20819;-79
2020/12/19 01:10:09;;;;;;;6.82;6.05;;;9.40;99.90;;;;;;6181177;23;20170;-79
2020/12/19 01:12:35;;;;;;;9.35;7.93;;;9.50;99.90;;;;;;6181738;23;20153;-79
2020/12/19 01:15:01;;;;;;;9.00;8.10;;;9.40;99.90;;;;;;6130786;23;20244;-79
2020/12/19 01:17:27;;;;;;;7.97;6.85;;;9.50;99.90;;;;;;6105768;23;20545;-79
2020/12/19 01:19:53;;;;;;;7.23;6.53;;;9.40;99.90;;;;;;6155238;23;20165;-79
2020/12/19 01:22:19;;;;;;;8.83;7.70;;;9.40;99.90;;;;;;6155745;23;20533;-80
2020/12/19 01:24:44;;;;;;;7.57;6.40;;;9.40;99.90;;;;;;6183990;23;20553;-80
2020/12/19 01:27:10;;;;;;;10.17;8.80;;;9.40;99.90;;;;;;6157461;23;20533;-79
2020/12/19 01:29:36;;;;;;;8.60;7.57;;;9.30;99.90;;;;;;6156751;23;20784;-79
2020/12/19 01:32:02;;;;;;;7.30;6.57;;;9.30;99.90;;;;;;6157084;23;20533;-79
2020/12/19 01:34:28;;;;;;;7.87;6.33;;;9.30;99.90;;;;;;6183459;23;20473;-79
2020/12/19 01:36:54;;;;;;;9.10;7.33;;;9.30;99.90;;;;;;6183557;23;20525;-79
2020/12/19 01:39:20;;;;;;;8.93;6.33;;;9.30;99.90;;;;;;6182678;23;20575;-79
2020/12/19 01:41:45;;;;;;;7.10;6.10;;;9.30;99.90;;;;;;6183314;23;20539;-79
2020/12/19 01:44:11;;;;;;;8.30;6.87;;;9.30;99.90;;;;;;6183688;23;20138;-79
2020/12/19 01:47:02;;;;;;;9.40;8.10;;;9.20;99.90;;;;;;6183673;23;20149;-79
2020/12/19 01:49:30;;;;;;;8.45;7.00;;;9.20;99.90;;;;;;6182999;23;20584;-79
2020/12/19 01:52:01;;;;;;;8.57;7.43;;;9.20;99.90;;;;;;6183207;23;20150;-79
2020/12/19 01:54:28;;;;;;;8.13;7.00;;;9.30;99.90;;;;;;6157390;23;20520;-79
2020/12/19 01:56:56;;;;;;;9.02;7.15;;;9.40;99.90;;;;;;6183346;23;20154;-79
2020/12/19 01:59:23;;;;;;;10.38;7.78;;;9.40;99.90;;;;;;6182796;23;20181;-79
2020/12/19 02:01:52;;;;;;;7.85;7.05;;;9.40;99.90;;;;;;6183778;23;20212;-79
2020/12/19 02:04:20;;;;;;;7.32;6.65;;;9.50;99.90;;;;;;6156885;23;20163;-79
2020/12/19 02:06:48;;;;;;;7.25;6.55;;;9.60;99.90;;;;;;6131994;23;20241;-79
2020/12/19 02:09:15;;;;;;;7.20;6.45;;;9.60;99.90;;;;;;6156087;23;20501;-79
2020/12/19 02:11:46;;;;;;;7.35;6.65;;;9.60;99.90;;;;;;6182863;23;20146;-79
2020/12/19 02:14:12;;;;;;;14.27;8.55;;;9.60;99.90;;;;;;6183113;23;20145;-79
2020/12/19 02:16:51;;;;;;;6.95;6.15;;;9.60;99.90;;;;;;6182894;23;20491;-79
2020/12/19 02:19:17;;;;;;;7.90;7.20;;;9.70;99.90;;;;;;6182251;23;20612;-79
2020/12/19 02:21:43;;;;;;;9.87;8.87;;;9.70;99.90;;;;;;6182747;23;20252;-79
2020/12/19 02:24:09;;;;;;;8.93;7.50;;;9.70;99.90;;;;;;6183441;23;20146;-79
2020/12/19 02:26:35;;;;;;;8.60;7.70;;;9.70;99.90;;;;;;6183175;23;20238;-79
2020/12/19 02:29:01;;;;;;;8.17;6.77;;;9.70;99.90;;;;;;6182455;23;20201;-79
2020/12/19 02:31:28;;;;;;;9.07;7.90;;;9.70;99.90;;;;;;6182678;23;20549;-79
2020/12/19 02:33:54;;;;;;;8.27;7.40;;;9.60;99.90;;;;;;6156797;23;20645;-79
2020/12/19 02:36:20;;;;;;;8.43;7.53;;;9.60;99.90;;;;;;6183037;23;20156;-80
2020/12/19 02:38:46;;;;;;;11.10;9.60;;;9.60;99.90;;;;;;6184191;23;20193;-79
2020/12/19 02:41:12;;;;;;;7.83;7.03;;;9.60;99.90;;;;;;6182527;23;20571;-79
2020/12/19 02:43:37;;;;;;;8.67;7.77;;;9.60;99.90;;;;;;6156687;23;20228;-80
2020/12/19 02:46:03;;;;;;;7.90;7.10;;;9.60;99.90;;;;;;6182911;23;20155;-79
2020/12/19 02:48:29;;;;;;;6.80;6.10;;;9.60;99.90;;;;;;6182318;23;20960;-79
2020/12/19 02:50:55;;;;;;;11.33;8.00;;;9.60;99.90;;;;;;6131354;23;20580;-80
2020/12/19 02:53:21;;;;;;;9.20;8.30;;;9.50;99.90;;;;;;6183073;23;20533;-80
2020/12/19 02:55:46;;;;;;;9.40;8.07;;;9.50;99.90;;;;;;6182962;23;20146;-79
2020/12/19 02:58:12;;;;;;;9.40;7.40;;;9.50;99.90;;;;;;6182252;23;20265;-79
2020/12/19 03:00:38;;;;;;;8.33;7.50;;;9.40;99.90;;;;;;6182197;23;20665;-80
2020/12/19 03:03:04;;;;;;;7.57;6.60;;;9.40;99.90;;;;;;6182766;23;20142;-79
2020/12/19 03:05:30;;;;;;;9.37;8.13;;;9.40;99.90;;;;;;6182528;23;20168;-79
2020/12/19 03:07:56;;;;;;;7.55;6.43;;;9.40;99.90;;;;;;6182143;23;20150;-79
2020/12/19 03:10:22;;;;;;;11.13;9.07;;;9.40;99.90;;;;;;6182513;23;20156;-79
2020/12/19 03:12:47;;;;;;;11.37;9.03;;;9.30;99.90;;;;;;6182841;23;20157;-79
2020/12/19 03:15:13;;;;;;;11.47;10.37;;;9.30;99.90;;;;;;6182703;23;20624;-79
2020/12/19 03:17:39;;;;;;;9.43;8.53;;;9.30;99.90;;;;;;6155643;23;20541;-79
2020/12/19 03:20:05;;;;;;;8.80;6.87;;;9.20;99.90;;;;;;6155679;23;20549;-80
2020/12/19 03:22:31;;;;;;;8.43;7.60;;;9.20;99.90;;;;;;6182422;23;20525;-79
2020/12/19 03:24:57;;;;;;;9.20;6.60;;;9.20;99.90;;;;;;6182588;23;20610;-80
2020/12/19 03:27:22;;;;;;;9.50;8.33;;;9.20;99.90;;;;;;6131156;23;20903;-80
2020/12/19 03:29:48;;;;;;;9.70;8.30;;;9.20;99.90;;;;;;6156227;23;20165;-80
2020/12/19 03:32:14;;;;;;;10.53;9.03;;;9.10;99.90;;;;;;6156027;23;20552;-80
2020/12/19 03:34:40;;;;;;;8.87;7.77;;;9.10;99.90;;;;;;6156082;23;20529;-80
2020/12/19 03:37:05;;;;;;;9.43;8.23;;;9.10;99.90;;;;;;6182627;23;20142;-80
2020/12/19 03:39:31;;;;;;;12.67;10.90;;;9.00;99.90;;;;;;6181683;23;20493;-80
2020/12/19 03:41:57;;;;;;;10.93;9.63;;;8.90;99.90;;;;;;6155511;23;20181;-80
2020/12/19 03:44:23;;;;;;;11.67;9.40;;;8.90;99.90;;;;;;6182424;23;20522;-80
2020/12/19 03:46:48;;;;;;;13.97;9.97;;;8.80;99.90;;;;;;6182235;23;20149;-80
2020/12/19 03:49:14;;;;;;;10.40;9.40;;;8.80;99.90;;;;;;6181589;23;20672;-80
2020/12/19 03:51:40;;;;;;;10.33;8.87;;;8.80;99.90;;;;;;6156780;23;21067;-80
2020/12/19 03:54:06;;;;;;;12.67;10.80;;;8.80;99.90;;;;;;6154819;23;20150;-80
2020/12/19 03:56:32;;;;;;;11.90;9.80;;;8.80;99.90;;;;;;6182190;23;20224;-80
2020/12/19 03:58:57;;;;;;;11.17;8.97;;;8.80;99.90;;;;;;6181511;23;20702;-80
2020/12/19 04:01:23;;;;;;;10.77;9.63;;;8.70;99.90;;;;;;6155529;23;20576;-79
2020/12/19 04:03:49;;;;;;;11.27;9.97;;;8.70;99.90;;;;;;6181936;23;20142;-79
2020/12/19 04:06:15;;;;;;;8.60;7.80;;;8.70;99.90;;;;;;6182053;23;20894;-80
2020/12/19 04:08:41;;;;;;;11.00;9.43;;;8.70;99.90;;;;;;6181338;23;20250;-79
2020/12/19 04:11:07;;;;;;;11.77;10.53;;;8.70;99.90;;;;;;6155743;23;20556;-79
2020/12/19 04:13:35;;;;;;;11.10;9.77;;;8.70;99.90;;;;;;6182109;23;20964;-79
2020/12/19 04:16:07;;;;;;;12.43;9.80;;;8.60;99.90;;;;;;6182244;23;20133;-80
2020/12/19 04:18:33;;;;;;;11.33;9.60;;;8.60;99.90;;;;;;6155043;23;20177;-79
2020/12/19 04:20:59;;;;;;;12.60;11.33;;;8.60;99.90;;;;;;6181680;23;20604;-79
2020/12/19 04:23:25;;;;;;;11.47;9.57;;;8.60;99.90;;;;;;6181931;23;20541;-79
2020/12/19 04:25:51;;;;;;;10.27;8.88;;;8.60;99.90;;;;;;6182395;23;20217;-79
2020/12/19 04:28:17;;;;;;;12.20;9.90;;;8.50;99.90;;;;;;6182348;23;20181;-80
2020/12/19 04:30:42;;;;;;;8.83;7.93;;;8.60;99.90;;;;;;6181528;23;20146;-79
2020/12/19 04:33:08;;;;;;;9.60;8.70;;;8.50;99.90;;;;;;6155752;23;20157;-79
2020/12/19 04:35:37;;;;;;;10.85;9.73;;;8.60;99.90;;;;;;6156088;23;20952;-79
2020/12/19 04:38:03;;;;;;;12.68;9.68;;;8.50;99.90;;;;;;6181510;23;20150;-79
2020/12/19 04:40:29;;;;;;;11.47;10.27;;;8.50;99.90;;;;;;6155558;23;20505;-79
2020/12/19 04:42:57;;;;;;;12.97;11.57;;;8.50;99.90;;;;;;6181660;23;20146;-79
2020/12/19 04:45:22;;;;;;;10.00;8.98;;;8.40;99.90;;;;;;6182029;23;20475;-79
2020/12/19 04:47:48;;;;;;;12.00;10.70;;;8.40;99.90;;;;;;6154638;23;20152;-79
2020/12/19 04:50:16;;;;;;;14.33;11.80;;;8.40;99.90;;;;;;6155165;23;20228;-79
2020/12/19 04:52:41;;;;;;;9.25;8.18;;;8.40;99.90;;;;;;6155586;23;20552;-79
2020/12/19 04:55:07;;;;;;;11.57;10.27;;;8.40;99.90;;;;;;6181766;23;20342;-79
2020/12/19 04:57:34;;;;;;;10.33;9.27;;;8.40;99.90;;;;;;6181289;23;20146;-79
2020/12/19 04:59:59;;;;;;;11.30;10.10;;;8.40;99.90;;;;;;6181591;23;20165;-79
2020/12/19 05:02:25;;;;;;;9.83;8.40;;;8.40;99.90;;;;;;6181276;23;20606;-79
2020/12/19 05:04:51;;;;;;;10.17;8.90;;;8.40;99.90;;;;;;6181792;23;20161;-79
2020/12/19 05:07:17;;;;;;;10.00;8.87;;;8.40;99.90;;;;;;6181506;23;20146;-79
2020/12/19 05:09:44;;;;;;;13.40;11.17;;;8.40;99.90;;;;;;6181671;23;20162;-79
2020/12/19 05:12:12;;;;;;;11.50;10.35;;;8.40;99.90;;;;;;6155457;23;20901;-79
2020/12/19 05:14:38;;;;;;;13.25;10.35;;;8.40;99.90;;;;;;6181820;23;20160;-79
2020/12/19 05:17:04;;;;;;;11.07;9.93;;;8.40;99.90;;;;;;6181575;23;20145;-79
2020/12/19 05:19:31;;;;;;;11.02;9.93;;;8.40;99.90;;;;;;6154827;23;20193;-79
2020/12/19 05:21:57;;;;;;;11.10;9.52;;;8.40;99.90;;;;;;6181433;23;20480;-79
2020/12/19 05:24:30;;;;;;;10.70;9.60;;;8.40;99.90;;;;;;6155457;23;20225;-79
2020/12/19 05:26:57;;;;;;;11.45;10.32;;;8.40;99.90;;;;;;6155542;23;20586;-79
2020/12/19 05:29:24;;;;;;;13.93;12.00;;;8.40;99.90;;;;;;6181422;23;20510;-79
2020/12/19 05:31:58;;;;;;;11.55;10.30;;;8.40;99.90;;;;;;6155813;23;20525;-79
2020/12/19 05:34:29;;;;;;;11.18;9.80;;;8.40;99.90;;;;;;6181360;23;20440;-79
2020/12/19 05:36:56;;;;;;;9.65;8.70;;;8.40;99.90;;;;;;6181688;23;20585;-79
2020/12/19 05:39:22;;;;;;;11.75;9.40;;;8.40;99.90;;;;;;6181090;23;20785;-79
2020/12/19 05:41:49;;;;;;;9.32;8.43;;;8.40;99.90;;;;;;6154366;23;20249;-79
2020/12/19 05:44:18;;;;;;;9.57;8.27;;;8.40;99.90;;;;;;6181626;23;20213;-80
2020/12/19 05:46:44;;;;;;;9.00;7.93;;;8.40;99.90;;;;;;6181675;23;20146;-79
2020/12/19 05:49:11;;;;;;;10.60;9.50;;;8.40;99.90;;;;;;6180985;23;20216;-80
2020/12/19 05:51:40;;;;;;;10.80;9.70;;;8.40;99.90;;;;;;6179924;23;20525;-80
2020/12/19 05:54:08;;;;;;;9.90;8.90;;;8.40;99.90;;;;;;6181809;23;20233;-79
2020/12/19 05:56:38;;;;;;;11.48;10.27;;;8.40;99.90;;;;;;6155115;23;20146;-80
2020/12/19 05:59:08;;;;;;;11.23;9.70;;;8.40;99.90;;;;;;6154526;23;20173;-80
2020/12/19 06:01:37;;;;;;;14.65;11.27;;;8.40;99.90;;;;;;6181442;23;20189;-80
2020/12/19 06:04:06;;;;;;;9.70;8.75;;;8.40;99.90;;;;;;6155317;23;20801;-80
2020/12/19 06:06:34;;;;;;;12.52;10.82;;;8.40;99.90;;;;;;6182131;23;20142;-80
2020/12/19 06:09:00;;;;;;;9.77;8.77;;;8.50;99.90;;;;;;6181758;23;20169;-80
2020/12/19 06:11:31;;;;;;;12.05;9.88;;;8.50;99.90;;;;;;6183451;23;20150;-80
2020/12/19 06:14:03;;;;;;;8.23;7.43;;;8.50;99.90;;;;;;6193551;23;20134;-80
2020/12/19 06:16:31;;;;;;;11.13;9.93;;;8.60;99.90;;;;;;6196641;23;20138;-80
2020/12/19 06:19:06;;;;;;;9.75;8.75;;;8.70;99.90;;;;;;6194861;23;20185;-80
2020/12/19 06:21:32;;;;;;;13.80;10.55;;;8.70;99.90;;;;;;6184174;23;20162;-80
2020/12/19 06:23:58;;;;;;;12.00;10.75;;;8.70;99.90;;;;;;6183144;23;20146;-80
2020/12/19 06:26:37;;;;;;;11.13;9.70;;;8.70;99.90;;;;;;6156498;23;20160;-80
2020/12/19 06:29:04;;;;;;;11.13;10.00;;;8.70;99.90;;;;;;6182340;23;20166;-79
2020/12/19 06:31:31;;;;;;;11.27;10.07;;;8.70;99.90;;;;;;6182798;23;20196;-79
2020/12/19 06:34:03;;;;;;;10.75;9.07;;;8.80;99.90;;;;;;6132517;23;20403;-79
2020/12/19 06:36:30;;;;;;;9.90;8.90;;;8.80;99.90;;;;;;6182990;23;20145;-79
2020/12/19 06:39:05;;;;;;;10.98;9.80;;;8.80;99.90;;;;;;6155234;23;20906;-79
2020/12/19 06:41:49;;;;;;;11.35;9.98;;;8.80;99.90;;;;;;6181733;23;20176;-79
2020/12/19 06:44:34;;;;;;;9.95;8.95;;;8.90;99.90;;;;;;6156169;23;20148;-79
2020/12/19 06:47:01;;;;;;;11.00;9.90;;;8.90;99.90;;;;;;6182158;23;20138;-79
2020/12/19 06:49:28;;;;;;;10.70;9.57;;;8.90;99.90;;;;;;6155033;23;20185;-79
2020/12/19 06:52:13;;;;;;;12.05;10.77;;;9.00;99.90;;;;;;6182737;23;20204;-79
2020/12/19 06:54:39;;;;;;;11.30;9.23;;;9.00;99.90;;;;;;6182654;23;20491;-79
2020/12/19 06:57:20;;;;;;;11.07;9.90;;;9.00;99.90;;;;;;6157079;23;20157;-79
2020/12/19 06:59:46;;;;;;;9.27;8.20;;;9.00;99.90;;;;;;6156438;23;20480;-79
2020/12/19 07:02:20;;;;;;;10.10;9.10;;;9.00;99.90;;;;;;6156336;23;20173;-79
2020/12/19 07:04:46;;;;;;;8.40;7.50;;;9.10;99.90;;;;;;6132108;23;20169;-79
2020/12/19 07:07:22;;;;;;;10.65;9.55;;;9.10;99.90;;;;;;6156209;23;20145;-79
2020/12/19 07:09:59;;;;;;;10.25;9.02;;;9.10;99.90;;;;;;6182293;23;20549;-79
2020/12/19 07:12:36;;;;;;;11.50;9.65;;;9.20;99.90;;;;;;6154776;23;20184;-80
2020/12/19 07:15:05;;;;;;;11.13;9.85;;;9.10;99.90;;;;;;6155975;23;20146;-79
2020/12/19 07:17:49;;;;;;;11.32;9.18;;;9.10;99.90;;;;;;6155740;23;20477;-78
2020/12/19 07:20:22;;;;;;;11.57;10.48;;;9.10;99.90;;;;;;6153878;23;20652;-80
2020/12/19 07:22:49;;;;;;;10.55;9.55;;;9.10;99.90;;;;;;6182055;23;20196;-79
2020/12/19 07:25:15;;;;;;;11.77;10.00;;;9.10;99.90;;;;;;6155670;23;20752;-78
2020/12/19 07:27:41;;;;;;;11.20;10.10;;;9.20;99.90;;;;;;6181600;23;20203;-78
2020/12/19 07:30:07;;;;;;;9.90;8.87;;;9.20;99.90;;;;;;6181957;23;20591;-79
2020/12/19 07:32:33;;;;;;;10.67;8.53;;;9.20;99.90;;;;;;6182312;23;20136;-79
2020/12/19 07:34:59;;;;;;;9.30;8.40;;;9.20;99.90;;;;;;6185693;23;20529;-79
2020/12/19 07:37:26;;;;;;;9.90;8.90;;;9.30;99.90;;;;;;6181551;23;20584;-79
2020/12/19 07:40:04;;;;;;;11.65;10.45;;;9.30;99.90;;;;;;6181418;23;20556;-79
2020/12/19 07:42:30;;;;;;;13.10;11.57;;;9.30;99.90;;;;;;6181974;23;20138;-79
2020/12/19 07:44:55;;;;;;;12.20;11.00;;;9.30;99.90;;;;;;6131109;23;20149;-79
2020/12/19 07:47:21;;;;;;;9.23;8.20;;;9.30;99.90;;;;;;6181546;23;20157;-79
2020/12/19 07:49:49;;;;;;;10.03;9.13;;;9.30;99.90;;;;;;6131303;23;20968;-79
2020/12/19 07:52:22;;;;;;;11.10;8.90;;;9.40;99.90;;;;;;6181481;23;20561;-79
2020/12/19 07:55:03;;;;;;;11.00;8.95;;;9.40;99.90;;;;;;6182249;23;20138;-79
2020/12/19 07:57:30;;;;;;;10.05;8.82;;;9.40;99.90;;;;;;6181745;23;20278;-79
2020/12/19 07:59:59;;;;;;;10.57;9.48;;;9.40;99.90;;;;;;6155780;23;20252;-78
2020/12/19 08:02:30;;;;;;;10.45;9.40;;;9.40;99.90;;;;;;6182310;23;20188;-78
2020/12/19 08:04:57;;;;;;;10.33;8.87;;;9.50;99.90;;;;;;6182264;23;20462;-79
2020/12/19 08:07:29;;;;;;;10.60;9.45;;;9.50;99.90;;;;;;6155285;23;20481;-79
2020/12/19 08:09:58;;;;;;;9.00;8.05;;;9.40;99.90;;;;;;6180216;23;20497;-79
2020/12/19 08:12:26;;;;;;;10.23;9.23;;;9.50;99.90;;;;;;6156554;23;20161;-79
2020/12/19 08:14:52;;;;;;;10.23;8.68;;;9.50;99.90;;;;;;6182009;23;20157;-79
2020/12/19 08:17:18;;;;;;;10.05;8.25;;;9.50;99.90;;;;;;6180508;23;20538;-79
2020/12/19 08:19:57;;;;;;;9.75;8.85;;;9.50;99.90;;;;;;6155398;23;20180;-81
2020/12/19 08:22:23;;;;;;;10.55;8.82;;;9.50;99.90;;;;;;6154796;23;20534;-79
2020/12/19 08:24:50;;;;;;;9.70;7.60;;;9.50;99.90;;;;;;6180264;23;20142;-80
2020/12/19 08:27:45;;;;;;;8.65;7.75;;;9.60;99.90;;;;;;6180386;23;20169;-80
2020/12/19 08:30:13;;;;;;;7.63;6.57;;;9.60;99.90;;;;;;6181278;23;20169;-79
2020/12/19 08:32:58;;;;;;;11.30;8.85;;;9.60;99.90;;;;;;6155660;23;20142;-79
2020/12/19 08:35:44;;;;;;;10.05;8.18;;;9.70;99.90;;;;;;6155830;23;20180;-79
2020/12/19 08:38:23;;;;;;;9.35;8.35;;;9.70;99.90;;;;;;6154783;23;20512;-79
2020/12/19 08:40:51;;;;;;;8.63;7.80;;;9.70;99.90;;;;;;6155209;23;20158;-79
2020/12/19 08:43:19;;;;;;;10.48;9.38;;;9.70;99.90;;;;;;6182166;23;20161;-79
2020/12/19 08:45:49;;;;;;;10.77;9.68;;;9.70;99.90;;;;;;6182210;23;20162;-79
2020/12/19 08:48:23;;;;;;;9.63;8.60;;;9.70;99.90;;;;;;6156399;23;20181;-79
2020/12/19 08:50:52;;;;;;;11.57;10.38;;;9.70;99.90;;;;;;6181333;23;20192;-79
2020/12/19 08:53:20;;;;;;;9.40;8.45;;;9.70;99.90;;;;;;6181867;23;20142;-79
2020/12/19 08:55:46;;;;;;;10.00;8.55;;;9.80;99.90;;;;;;6182095;23;20149;-79
2020/12/19 08:58:22;;;;;;;12.02;10.85;;;9.80;99.90;;;;;;6181118;23;20173;-79
2020/12/19 09:00:49;;;;;;;10.60;8.93;;;9.80;99.90;;;;;;6181435;23;20224;-79
2020/12/19 09:03:23;;;;;;;9.95;8.95;;;9.80;99.90;;;;;;6181737;23;20145;-79
2020/12/19 09:06:07;;;;;;;8.98;8.18;;;9.90;99.90;;;;;;6181388;23;20184;-78
2020/12/19 09:08:36;;;;;;;9.70;8.70;;;10.00;99.90;;;;;;6154664;23;20635;-78
2020/12/19 09:11:04;;;;;;;8.85;8.05;;;10.00;99.90;;;;;;6181447;23;20145;-79
2020/12/19 09:13:29;;;;;;;9.23;8.43;;;10.00;99.90;;;;;;6155306;23;20241;-79
2020/12/19 09:16:07;;;;;;;8.90;8.00;;;10.10;99.90;;;;;;6181882;23;20512;-79
2020/12/19 09:18:36;;;;;;;7.05;6.45;;;10.10;99.90;;;;;;6180757;23;20556;-79
2020/12/19 09:21:05;;;;;;;9.68;8.68;;;10.10;99.90;;;;;;6180691;23;20205;-79
2020/12/19 09:23:31;;;;;;;9.80;8.57;;;10.10;99.90;;;;;;6131020;23;20177;-79
2020/12/19 09:26:00;;;;;;;10.30;9.25;;;10.10;99.90;;;;;;6156565;23;20177;-78
2020/12/19 09:28:26;;;;;;;9.73;8.52;;;10.20;99.90;;;;;;6154797;23;20170;-79
2020/12/19 09:30:53;;;;;;;8.55;7.65;;;10.20;99.90;;;;;;6181674;23;20173;-79
2020/12/19 09:33:20;;;;;;;12.80;9.15;;;10.30;99.90;;;;;;6181985;23;20150;-79
2020/12/19 09:35:47;;;;;;;8.98;8.05;;;10.30;99.90;;;;;;6181607;23;20225;-79
2020/12/19 09:38:13;;;;;;;9.23;8.23;;;10.30;99.90;;;;;;6181298;23;20193;-79
2020/12/19 09:40:39;;;;;;;10.30;7.68;;;10.30;99.90;;;;;;6154943;23;20503;-79
2020/12/19 09:43:06;;;;;;;8.18;7.10;;;10.40;99.90;;;;;;6181407;23;20478;-79
2020/12/19 09:45:34;;;;;;;7.18;6.45;;;10.40;99.90;;;;;;6157139;23;20141;-79
2020/12/19 09:47:59;;;;;;;8.15;7.05;;;10.50;99.90;;;;;;6182745;23;20150;-79
2020/12/19 09:50:27;;;;;;;6.90;6.23;;;10.50;99.90;;;;;;6183287;23;20510;-79
2020/12/19 09:52:52;;;;;;;8.18;7.25;;;10.60;99.90;;;;;;6183440;23;21342;-79
2020/12/19 09:55:19;;;;;;;8.48;7.68;;;10.50;99.90;;;;;;6157125;23;20531;-79
2020/12/19 09:57:49;;;;;;;7.18;6.47;;;10.60;99.90;;;;;;6182852;23;20466;-80
2020/12/19 10:00:16;;;;;;;8.10;7.30;;;10.70;99.90;;;;;;6156620;23;20154;-80
2020/12/19 10:02:43;;;;;;;8.18;7.43;;;10.70;99.90;;;;;;6184032;23;20130;-80
2020/12/19 10:05:09;;;;;;;8.43;7.55;;;10.80;99.90;;;;;;6183052;23;20236;-79
2020/12/19 10:07:36;;;;;;;7.15;6.45;;;10.80;99.90;;;;;;6156669;23;20662;-80
2020/12/19 10:10:04;;;;;;;6.50;5.85;;;10.90;99.90;;;;;;6182950;23;20161;-79
2020/12/19 10:12:30;;;;;;;7.13;6.15;;;10.90;99.90;;;;;;6183098;23;20161;-79
2020/12/19 10:14:56;;;;;;;6.60;5.87;;;11.00;99.90;;;;;;6183270;23;20830;-79
2020/12/19 10:17:21;;;;;;;9.87;7.83;;;11.10;99.90;;;;;;6182247;23;20521;-80
2020/12/19 10:19:47;;;;;;;5.67;5.17;;;11.20;99.90;;;;;;6182967;23;20169;-79
2020/12/19 10:22:13;;;;;;;6.80;6.10;;;11.20;99.90;;;;;;6182835;23;20738;-79
2020/12/19 10:24:40;;;;;;;5.77;5.20;;;11.30;99.90;;;;;;6132291;23;20632;-80
2020/12/19 10:27:05;;;;;;;7.00;6.30;;;11.30;99.90;;;;;;6156892;23;20150;-79
2020/12/19 10:29:31;;;;;;;10.50;6.73;;;11.40;99.90;;;;;;6182502;23;20172;-79
2020/12/19 10:31:57;;;;;;;8.80;7.90;;;11.50;99.90;;;;;;6182592;23;20154;-79
2020/12/19 10:34:23;;;;;;;8.30;7.40;;;11.50;99.90;;;;;;6183222;23;20152;-79
2020/12/19 10:36:52;;;;;;;7.40;6.40;;;11.60;99.90;;;;;;6183044;23;20546;-80
2020/12/19 10:39:18;;;;;;;6.65;5.88;;;11.60;99.90;;;;;;6182697;23;20561;-80
2020/12/19 10:41:48;;;;;;;7.00;6.30;;;11.70;99.90;;;;;;6182812;23;20188;-79
2020/12/19 10:44:14;;;;;;;5.75;5.13;;;11.80;99.90;;;;;;6156800;23;20150;-80
2020/12/19 10:46:40;;;;;;;5.45;4.93;;;11.90;99.90;;;;;;6182802;23;20460;-79
2020/12/19 10:49:06;;;;;;;9.27;6.27;;;12.00;99.90;;;;;;6182203;23;20276;-79
2020/12/19 10:51:32;;;;;;;6.33;5.13;;;12.00;99.90;;;;;;6182615;23;20600;-79
2020/12/19 10:53:58;;;;;;;7.67;6.40;;;12.10;99.90;;;;;;6156597;23;20553;-79
2020/12/19 10:56:24;;;;;;;7.38;6.68;;;12.20;99.90;;;;;;6182716;23;20149;-79
2020/12/19 10:58:50;;;;;;;7.00;6.30;;;12.20;99.90;;;;;;6182264;23;20536;-79
2020/12/19 11:01:17;;;;;;;5.63;5.10;;;12.20;99.90;;;;;;6156217;23;20245;-79
2020/12/19 11:03:43;;;;;;;7.20;5.35;;;12.30;99.90;;;;;;6182964;23;20552;-79
2020/12/19 11:06:20;;;;;;;6.30;5.70;;;12.40;99.90;;;;;;6182814;23;20157;-79
2020/12/19 11:08:46;;;;;;;6.80;5.55;;;12.40;99.90;;;;;;6182269;23;20228;-79
2020/12/19 11:11:12;;;;;;;5.07;4.57;;;12.40;99.90;;;;;;6182684;23;20153;-79
2020/12/19 11:13:38;;;;;;;6.70;5.17;;;12.60;99.90;;;;;;6156799;23;20146;-79
2020/12/19 11:16:04;;;;;;;6.80;6.15;;;12.60;99.90;;;;;;6183364;23;20522;-80
2020/12/19 11:18:30;;;;;;;5.15;4.65;;;12.60;99.90;;;;;;6183524;23;20168;-79
2020/12/19 11:20:56;;;;;;;6.20;5.30;;;12.70;99.90;;;;;;6182667;23;20208;-79
2020/12/19 11:23:22;;;;;;;4.67;4.13;;;12.80;99.90;;;;;;6183148;23;20537;-79
2020/12/19 11:25:48;;;;;;;4.45;3.83;;;12.80;99.90;;;;;;6132105;23;20553;-79
2020/12/19 11:28:14;;;;;;;5.13;4.00;;;12.90;99.90;;;;;;6156060;23;20554;-79
2020/12/19 11:30:41;;;;;;;11.53;4.20;;;13.00;99.90;;;;;;6182934;23;20544;-79
2020/12/19 11:33:07;;;;;;;3.40;3.10;;;13.10;99.90;;;;;;6183158;23;20166;-79
2020/12/19 11:35:32;;;;;;;4.80;4.10;;;13.20;99.90;;;;;;6182717;23;20173;-79
2020/12/19 11:37:58;;;;;;;5.90;4.43;;;13.30;99.90;;;;;;6181989;23;20156;-79
2020/12/19 11:40:24;;;;;;;3.80;3.30;;;13.40;99.90;;;;;;6155506;23;20154;-79
2020/12/19 11:42:49;;;;;;;3.17;2.50;;;13.50;99.90;;;;;;6182610;23;20585;-79
2020/12/19 11:45:15;;;;;;;4.27;3.70;;;13.60;99.90;;;;;;6182147;23;20473;-79
2020/12/19 11:47:41;;;;;;;4.40;3.23;;;13.70;99.90;;;;;;6181778;23;20146;-79
2020/12/19 11:50:06;;;;;;;4.33;3.20;;;13.70;99.90;;;;;;6182067;23;20504;-79
2020/12/19 11:52:33;;;;;;;3.53;3.23;;;13.80;99.90;;;;;;6156249;23;20188;-79
2020/12/19 11:54:59;;;;;;;4.17;3.20;;;13.90;99.90;;;;;;6156107;23;20522;-80
2020/12/19 11:57:25;;;;;;;4.40;3.20;;;13.90;99.90;;;;;;6181814;23;20552;-79
2020/12/19 11:59:51;;;;;;;4.18;3.25;;;14.00;99.90;;;;;;6155438;23;20565;-79
2020/12/19 12:02:17;;;;;;;3.63;3.33;;;14.10;99.90;;;;;;6155499;23;20247;-78
2020/12/19 12:04:43;;;;;;;3.20;2.90;;;14.20;99.90;;;;;;6182015;23;20477;-79
2020/12/19 12:07:08;;;;;;;4.73;3.20;;;14.20;99.90;;;;;;6155687;23;20257;-79
2020/12/19 12:09:34;;;;;;;3.40;3.10;;;14.30;99.90;;;;;;6181280;23;20597;-79
2020/12/19 12:12:04;;;;;;;6.97;3.70;;;14.40;99.90;;;;;;6181558;23;20145;-79
2020/12/19 12:14:30;;;;;;;5.93;3.60;;;14.50;99.90;;;;;;6181978;23;20154;-79
2020/12/19 12:16:58;;;;;;;6.90;3.93;;;14.50;99.90;;;;;;6182055;23;20514;-79
2020/12/19 12:19:24;;;;;;;3.97;3.23;;;14.50;99.90;;;;;;6181231;23;20553;-79
2020/12/19 12:21:53;;;;;;;3.30;2.80;;;14.60;99.90;;;;;;6181529;23;20620;-79
2020/12/19 12:24:18;;;;;;;3.60;2.87;;;14.60;99.90;;;;;;6182079;23;20579;-79
2020/12/19 12:26:44;;;;;;;3.10;2.40;;;14.60;99.90;;;;;;6182118;23;20620;-78
2020/12/19 12:29:10;;;;;;;3.50;2.70;;;14.70;99.90;;;;;;6155002;23;20553;-80
2020/12/19 12:31:36;;;;;;;3.13;2.37;;;14.70;99.90;;;;;;6182031;23;20530;-80
2020/12/19 12:34:02;;;;;;;2.53;2.33;;;14.70;99.90;;;;;;6181563;23;20624;-79
2020/12/19 12:36:30;;;;;;;2.60;1.90;;;14.70;99.90;;;;;;6181913;23;20529;-78
2020/12/19 12:38:57;;;;;;;3.03;2.80;;;14.80;99.90;;;;;;6181241;23;20568;-78
2020/12/19 12:41:26;;;;;;;2.77;2.00;;;14.80;99.90;;;;;;6155407;23;20573;-79
2020/12/19 12:43:52;;;;;;;3.00;2.63;;;14.80;99.90;;;;;;6181797;23;20944;-79
2020/12/19 12:46:19;;;;;;;3.10;1.80;;;14.80;99.90;;;;;;6181773;23;20555;-79
2020/12/19 12:48:48;;;;;;;3.03;2.35;;;14.80;99.90;;;;;;6154755;23;21078;-79
2020/12/19 12:51:15;;;;;;;3.60;2.23;;;14.90;99.90;;;;;;6130591;23;20153;-78